KPSF/PSF METAR and TAF weather

Enter ICAO airport designator
Station Type Date Time Source
KPSF METAR 2018/12/10 13:54 UTC NOAA

KPSF 101354Z AUTO 34008KT 10SM CLR M02/M09 A3006 RMK AO2 SLP194 T10171089


Station Type Date Time Source
KPSF Decoded METAR 2018/12/10 13:54 UTC NOAA

PITTSFIELD MUNICIPAL AIRPORT , MA, United States (KPSF) 42-26N 073-17W 355M
Dec 10, 2018 - 08:54 AM EST / 2018.12.10 1354 UTC
Wind: from the NNW (340 degrees) at 9 MPH (8 KT):0
Visibility: 10 mile(s):0
Sky conditions: clear
Temperature: 28.9 F (-1.7 C)
Windchill: 21 F (-6 C):1
Dew Point: 16.0 F (-8.9 C)
Relative Humidity: 57%
Pressure (altimeter): 30.06 in. Hg (1017 hPa)
ob: KPSF 101354Z AUTO 34008KT 10SM CLR M02/M09 A3006 RMK AO2 SLP194 T10171089
cycle: 14

Station Type Date Time Source
KPSF TAF 2018/12/10 12:33 UTC NOAA

TAF KPSF 101130Z 1012/1112 30005KT P6SM FEW030
FM101400 32007KT P6SM FEW035
FM110000 VRB03KT P6SM SKC


Example: see airport list